createdAt,value
2023-05-22T00:00:31.811Z,59.85
2023-05-22T00:02:58.797Z,59.94
2023-05-22T00:05:25.506Z,60.39
2023-05-22T00:07:52.012Z,60.71
2023-05-22T00:10:18.785Z,60.80
2023-05-22T00:12:45.529Z,60.81
2023-05-22T00:15:12.219Z,61.19
2023-05-22T00:17:39.044Z,61.27
2023-05-22T00:20:10.886Z,60.90
2023-05-22T00:22:37.919Z,60.98
2023-05-22T00:25:05.961Z,60.61
2023-05-22T00:27:33.818Z,60.74
2023-05-22T00:30:01.048Z,60.14
2023-05-22T00:32:27.790Z,60.06
2023-05-22T00:34:54.326Z,60.04
2023-05-22T00:37:20.922Z,59.95
2023-05-22T00:39:47.703Z,60.40
2023-05-22T00:42:14.236Z,60.81
2023-05-22T00:44:41.832Z,60.53
2023-05-22T00:47:08.396Z,60.99
2023-05-22T00:49:34.937Z,60.93
2023-05-22T00:52:02.590Z,61.33
2023-05-22T00:54:37.938Z,61.24
2023-05-22T00:57:09.710Z,61.24
2023-05-22T00:59:36.444Z,61.48
2023-05-22T01:02:06.348Z,61.44
2023-05-22T01:04:33.321Z,61.51
2023-05-22T01:07:03.008Z,61.66
2023-05-22T01:09:30.227Z,61.62
2023-05-22T01:12:31.930Z,62.60
2023-05-22T01:15:31.901Z,62.53
2023-05-22T01:18:27.507Z,63.16
2023-05-22T01:21:32.865Z,62.50
2023-05-22T01:24:43.384Z,62.99
2023-05-22T01:27:35.159Z,62.31
2023-05-22T01:30:34.813Z,62.46
2023-05-22T01:33:04.290Z,62.33
2023-05-22T01:35:34.098Z,62.50
2023-05-22T01:38:03.267Z,62.45
2023-05-22T01:40:31.774Z,62.05
2023-05-22T01:42:58.727Z,61.94
2023-05-22T01:45:26.045Z,62.24
2023-05-22T01:47:52.627Z,62.64
2023-05-22T01:50:21.109Z,62.47
2023-05-22T01:52:58.970Z,62.88
2023-05-22T01:55:40.361Z,62.71
2023-05-22T01:58:42.791Z,62.71
2023-05-22T02:01:14.107Z,62.25
2023-05-22T02:03:42.741Z,62.87
2023-05-22T02:06:13.739Z,63.31
2023-05-22T02:08:42.883Z,63.32
2023-05-22T02:11:13.650Z,63.44
2023-05-22T02:13:40.483Z,63.66
2023-05-22T02:16:18.015Z,63.51
2023-05-22T02:18:47.968Z,63.99
2023-05-22T02:21:22.156Z,63.71
2023-05-22T02:23:50.175Z,63.84
2023-05-22T02:26:16.687Z,64.24
2023-05-22T02:28:43.844Z,64.24
2023-05-22T02:31:10.632Z,64.35
2023-05-22T02:33:37.201Z,64.53
2023-05-22T02:36:03.992Z,64.03
2023-05-22T02:38:30.594Z,64.64
2023-05-22T02:40:57.126Z,64.14
2023-05-22T02:43:23.603Z,64.36
2023-05-22T02:45:58.668Z,64.62
2023-05-22T02:48:25.232Z,64.53
2023-05-22T02:50:54.692Z,64.74
2023-05-22T02:53:21.872Z,64.64
2023-05-22T02:55:48.449Z,64.72
2023-05-22T02:58:15.021Z,64.97
2023-05-22T03:00:41.981Z,64.61
2023-05-22T03:03:17.996Z,64.28
2023-05-22T03:05:45.984Z,64.22
2023-05-22T03:08:12.575Z,64.41
2023-05-22T03:10:52.922Z,64.43
2023-05-22T03:13:19.676Z,64.41
2023-05-22T03:15:46.308Z,64.30
2023-05-22T03:18:22.385Z,63.81
2023-05-22T03:20:49.143Z,63.80
2023-05-22T03:23:15.733Z,64.24
2023-05-22T03:25:48.050Z,64.16
2023-05-22T03:28:27.075Z,64.12
2023-05-22T03:30:53.622Z,64.32
2023-05-22T03:33:20.252Z,63.76
2023-05-22T03:35:46.733Z,63.23
2023-05-22T03:38:13.408Z,62.73
2023-05-22T03:40:40.215Z,62.72
2023-05-22T03:43:06.871Z,62.17
2023-05-22T03:45:33.552Z,62.17
2023-05-22T03:48:00.207Z,61.92
2023-05-22T03:50:27.835Z,62.32
2023-05-22T03:52:54.317Z,62.49
2023-05-22T03:55:21.372Z,63.04
2023-05-22T03:57:47.860Z,63.54
2023-05-22T04:00:16.919Z,63.24
2023-05-22T04:02:45.289Z,63.16
2023-05-22T04:05:12.226Z,63.07
2023-05-22T04:07:41.852Z,62.56
2023-05-22T04:10:09.042Z,62.58
2023-05-22T04:12:35.567Z,62.93
2023-05-22T04:15:02.256Z,63.07
2023-05-22T04:17:33.429Z,63.05
2023-05-22T04:20:03.292Z,63.64
2023-05-22T04:22:30.822Z,63.97
2023-05-22T04:24:57.557Z,64.13
2023-05-22T04:27:24.849Z,63.85
2023-05-22T04:29:51.401Z,64.38
2023-05-22T04:32:32.333Z,64.26
2023-05-22T04:35:00.526Z,63.85
2023-05-22T04:37:28.590Z,63.75
2023-05-22T04:39:58.181Z,63.71
2023-05-22T04:42:25.312Z,63.62
2023-05-22T04:44:57.961Z,63.98
2023-05-22T04:47:24.615Z,63.91
2023-05-22T04:49:51.703Z,63.59
2023-05-22T04:52:18.245Z,63.55
2023-05-22T04:54:46.645Z,63.52
2023-05-22T04:57:13.216Z,63.24
2023-05-22T04:59:40.147Z,63.02
2023-05-22T05:02:10.966Z,62.88
2023-05-22T05:04:37.819Z,62.98
2023-05-22T05:07:05.990Z,62.96
2023-05-22T05:09:33.164Z,62.60
2023-05-22T05:11:59.669Z,62.68
2023-05-22T05:14:26.217Z,62.76
2023-05-22T05:16:52.996Z,62.81
2023-05-22T05:19:26.337Z,62.48
2023-05-22T05:21:52.945Z,62.05
2023-05-22T05:24:20.967Z,62.21
2023-05-22T05:26:47.569Z,61.97
2023-05-22T05:29:14.078Z,62.33
2023-05-22T05:31:40.755Z,62.34
2023-05-22T05:34:07.623Z,62.35
2023-05-22T05:36:34.341Z,62.12
2023-05-22T05:39:00.974Z,62.12
2023-05-22T05:41:28.295Z,61.86
2023-05-22T05:43:57.341Z,61.73
2023-05-22T05:46:23.929Z,62.32
2023-05-22T05:48:50.507Z,62.88
2023-05-22T05:51:17.043Z,62.58
2023-05-22T05:53:43.543Z,62.24
2023-05-22T05:56:10.257Z,62.98
2023-05-22T05:58:37.165Z,62.97
2023-05-22T06:01:04.137Z,62.87
2023-05-22T06:03:31.239Z,62.88
2023-05-22T06:05:58.179Z,63.28
2023-05-22T06:08:24.854Z,63.44
2023-05-22T06:10:59.559Z,63.25
2023-05-22T06:13:26.052Z,63.13
2023-05-22T06:15:52.726Z,63.17
2023-05-22T06:18:19.393Z,63.24
2023-05-22T06:20:45.931Z,62.81
2023-05-22T06:23:12.507Z,62.61
2023-05-22T06:25:39.896Z,62.69
2023-05-22T06:28:06.623Z,63.16
2023-05-22T06:30:40.378Z,63.18
2023-05-22T06:33:07.863Z,62.81
2023-05-22T06:35:34.557Z,62.52
2023-05-22T06:38:01.193Z,62.72
2023-05-22T06:40:27.955Z,62.45
2023-05-22T06:42:59.103Z,62.46
2023-05-22T06:45:25.812Z,62.57
2023-05-22T06:47:54.049Z,62.37
2023-05-22T06:50:22.401Z,62.31
2023-05-22T06:52:49.292Z,62.13
2023-05-22T06:55:16.385Z,62.00
2023-05-22T06:57:42.923Z,61.80
2023-05-22T07:00:14.878Z,61.66
2023-05-22T07:02:41.512Z,61.44
2023-05-22T07:05:09.116Z,61.21
2023-05-22T07:07:35.923Z,61.06
2023-05-22T07:10:02.557Z,60.92
2023-05-22T07:12:29.485Z,60.96
2023-05-22T07:14:57.061Z,60.97
2023-05-22T07:17:23.615Z,60.89
2023-05-22T07:19:52.453Z,60.68
2023-05-22T07:22:25.122Z,60.47
2023-05-22T07:24:51.712Z,60.27
2023-05-22T07:27:20.763Z,60.33
2023-05-22T07:29:50.535Z,60.01
2023-05-22T07:32:17.094Z,59.82
2023-05-22T07:34:46.471Z,59.47
2023-05-22T07:37:14.250Z,59.50
2023-05-22T07:39:40.893Z,59.29
2023-05-22T07:42:08.113Z,59.41
2023-05-22T07:44:34.747Z,59.08
2023-05-22T07:47:01.261Z,59.11
2023-05-22T07:49:30.876Z,58.35
2023-05-22T07:51:57.424Z,58.33
2023-05-22T07:54:24.194Z,58.12
2023-05-22T07:56:52.090Z,57.94
2023-05-22T07:59:19.697Z,57.59
2023-05-22T08:01:46.348Z,57.81
2023-05-22T08:04:13.194Z,57.67
2023-05-22T08:06:39.979Z,57.60
2023-05-22T08:09:06.621Z,57.30
2023-05-22T08:11:34.116Z,57.23
2023-05-22T08:14:03.711Z,56.15
2023-05-22T08:16:30.967Z,56.25
2023-05-22T08:18:57.607Z,56.08
2023-05-22T08:21:24.176Z,55.82
2023-05-22T08:23:50.978Z,55.63
2023-05-22T08:26:17.564Z,55.28
2023-05-22T08:28:44.480Z,55.03
2023-05-22T08:31:11.944Z,54.90
2023-05-22T08:33:39.796Z,54.77
2023-05-22T08:36:06.843Z,54.01
2023-05-22T08:38:33.683Z,53.77
2023-05-22T08:41:00.290Z,53.80
2023-05-22T08:43:28.601Z,53.56
2023-05-22T08:46:04.357Z,53.46
2023-05-22T08:48:32.995Z,53.18
2023-05-22T08:51:05.653Z,52.86
2023-05-22T08:53:36.534Z,52.00
2023-05-22T08:56:08.809Z,52.48
2023-05-22T08:58:37.874Z,51.86
2023-05-22T09:01:06.767Z,51.16
2023-05-22T09:03:35.001Z,51.08
2023-05-22T09:06:04.552Z,51.22
2023-05-22T09:08:31.098Z,51.23
2023-05-22T09:10:57.803Z,50.87
2023-05-22T09:13:30.878Z,50.48
2023-05-22T09:16:15.042Z,50.72
2023-05-22T09:18:42.588Z,50.13
2023-05-22T09:21:25.964Z,50.23
2023-05-22T09:24:01.479Z,50.35
2023-05-22T09:26:29.564Z,50.33
2023-05-22T09:29:02.173Z,50.16
2023-05-22T09:31:29.730Z,50.26
2023-05-22T09:33:56.700Z,50.38
2023-05-22T09:36:33.027Z,50.59
2023-05-22T09:39:04.752Z,50.38
2023-05-22T09:41:36.753Z,50.61
2023-05-22T09:44:13.592Z,50.46
2023-05-22T09:46:47.663Z,50.15
2023-05-22T09:49:16.755Z,49.41
2023-05-22T09:51:48.332Z,49.68
2023-05-22T09:54:17.349Z,49.04
2023-05-22T09:56:48.492Z,49.11
2023-05-22T09:59:23.815Z,49.07
2023-05-22T10:01:50.741Z,49.17
2023-05-22T10:04:18.891Z,48.71
2023-05-22T10:06:53.685Z,47.70
2023-05-22T10:09:24.877Z,47.71
2023-05-22T10:11:56.523Z,47.79
2023-05-22T10:14:24.345Z,48.15
2023-05-22T10:16:51.493Z,47.82
2023-05-22T10:19:18.552Z,47.90
2023-05-22T10:21:47.353Z,48.05
2023-05-22T10:24:14.739Z,48.25
2023-05-22T10:26:44.081Z,48.22
2023-05-22T10:29:22.098Z,47.96
2023-05-22T10:32:19.161Z,46.96
2023-05-22T10:35:00.947Z,46.45
2023-05-22T10:37:47.389Z,47.96
2023-05-22T10:40:28.695Z,47.36
2023-05-22T10:43:06.542Z,47.31
2023-05-22T10:45:33.556Z,47.75
2023-05-22T10:48:12.423Z,46.98
2023-05-22T10:50:40.972Z,47.50
2023-05-22T10:53:31.276Z,46.56
2023-05-22T10:56:02.954Z,47.38
2023-05-22T10:58:38.885Z,47.53
2023-05-22T11:01:20.375Z,47.66
2023-05-22T11:04:09.311Z,47.47
2023-05-22T11:06:49.966Z,46.97
2023-05-22T11:09:19.220Z,47.01
2023-05-22T11:11:47.432Z,47.03
2023-05-22T11:14:18.402Z,47.01
2023-05-22T11:16:45.048Z,47.20
2023-05-22T11:19:22.870Z,46.25
2023-05-22T11:21:50.656Z,45.37
2023-05-22T11:24:18.084Z,45.62
2023-05-22T11:27:01.267Z,45.21
2023-05-22T11:29:29.430Z,43.83
2023-05-22T11:31:58.478Z,44.18
2023-05-22T11:34:28.859Z,45.02
2023-05-22T11:37:01.940Z,45.37
2023-05-22T11:39:28.526Z,45.41
2023-05-22T11:41:55.323Z,45.83
2023-05-22T11:44:21.892Z,45.91
2023-05-22T11:46:48.575Z,46.01
2023-05-22T11:49:15.217Z,46.12
2023-05-22T11:51:42.180Z,46.51
2023-05-22T11:54:08.747Z,46.38
2023-05-22T11:56:35.263Z,46.62
2023-05-22T11:59:02.087Z,46.98
2023-05-22T12:01:28.665Z,47.25
2023-05-22T12:03:55.483Z,47.50
2023-05-22T12:06:22.420Z,47.40
2023-05-22T12:08:49.098Z,47.50
2023-05-22T12:11:16.614Z,47.46
2023-05-22T12:13:43.431Z,47.52
2023-05-22T12:16:24.148Z,47.29
2023-05-22T12:18:54.386Z,46.97
2023-05-22T12:21:22.117Z,46.59
2023-05-22T12:23:51.266Z,46.48
2023-05-22T12:26:18.182Z,46.52
2023-05-22T12:28:44.814Z,46.57
2023-05-22T12:31:11.468Z,46.40
2023-05-22T12:33:40.495Z,46.41
2023-05-22T12:36:08.035Z,46.14
2023-05-22T12:38:35.645Z,45.42
2023-05-22T12:41:02.293Z,45.63
2023-05-22T12:43:28.902Z,45.10
2023-05-22T12:45:55.619Z,45.16
2023-05-22T12:48:22.964Z,44.52
2023-05-22T12:50:49.510Z,45.08
2023-05-22T12:53:16.037Z,44.72
2023-05-22T12:55:43.407Z,44.76
2023-05-22T12:58:10.040Z,45.00
2023-05-22T13:00:36.639Z,45.34
2023-05-22T13:03:04.243Z,45.22
2023-05-22T13:05:31.073Z,43.51
2023-05-22T13:07:57.744Z,44.28
2023-05-22T13:10:24.360Z,44.32
2023-05-22T13:12:51.599Z,45.09
2023-05-22T13:15:18.716Z,45.00
2023-05-22T13:17:45.810Z,44.20
2023-05-22T13:20:13.408Z,44.57
2023-05-22T13:22:41.714Z,43.65
2023-05-22T13:25:08.883Z,44.03
2023-05-22T13:27:35.393Z,43.93
2023-05-22T13:30:02.002Z,44.06
2023-05-22T13:32:28.593Z,43.88
2023-05-22T13:34:55.193Z,43.42
2023-05-22T13:37:21.913Z,43.43
2023-05-22T13:39:48.498Z,42.84
2023-05-22T13:42:15.492Z,42.21
2023-05-22T13:44:42.121Z,41.95
2023-05-22T13:47:08.828Z,42.31
2023-05-22T13:49:35.472Z,41.63
2023-05-22T13:52:02.011Z,40.71
2023-05-22T13:54:28.616Z,41.63
2023-05-22T13:56:57.584Z,39.53
2023-05-22T13:59:24.256Z,39.55
2023-05-22T14:01:50.797Z,39.46
2023-05-22T14:04:17.451Z,38.95
2023-05-22T14:06:44.005Z,38.52
2023-05-22T14:09:10.698Z,38.38
2023-05-22T14:11:37.325Z,38.51
2023-05-22T14:14:03.961Z,37.41
2023-05-22T14:16:30.598Z,37.11
2023-05-22T14:18:57.314Z,36.34
2023-05-22T14:21:23.891Z,36.67
2023-05-22T14:23:50.541Z,37.51
2023-05-22T14:26:17.299Z,38.15
2023-05-22T14:28:44.094Z,38.62
2023-05-22T14:31:10.881Z,38.78
2023-05-22T14:33:37.512Z,38.84
2023-05-22T14:36:04.472Z,39.07
2023-05-22T14:38:33.726Z,38.83
2023-05-22T14:41:03.470Z,38.79
2023-05-22T14:43:30.169Z,39.39
2023-05-22T14:45:57.991Z,39.43
2023-05-22T14:48:26.273Z,39.39
2023-05-22T14:50:55.806Z,39.23
2023-05-22T14:53:23.189Z,39.37
2023-05-22T14:55:49.763Z,39.78
2023-05-22T14:58:16.347Z,40.13
2023-05-22T15:00:42.973Z,40.15
2023-05-22T15:03:09.610Z,39.87
2023-05-22T15:05:36.329Z,40.14
2023-05-22T15:08:02.913Z,40.07
2023-05-22T15:10:29.618Z,39.89
2023-05-22T15:12:56.512Z,40.00
2023-05-22T15:15:23.132Z,40.29
2023-05-22T15:17:49.762Z,39.96
2023-05-22T15:20:16.460Z,39.55
2023-05-22T15:22:42.988Z,39.67
2023-05-22T15:25:12.578Z,39.81
2023-05-22T15:27:39.656Z,40.32
2023-05-22T15:30:09.567Z,40.35
2023-05-22T15:32:37.330Z,39.60
2023-05-22T15:35:05.613Z,39.57
2023-05-22T15:37:33.702Z,39.96
2023-05-22T15:40:01.668Z,39.21
2023-05-22T15:42:28.617Z,38.67
2023-05-22T15:44:55.540Z,38.69
2023-05-22T15:47:22.171Z,38.89
2023-05-22T15:49:48.720Z,38.55
2023-05-22T15:52:15.585Z,38.63
2023-05-22T15:54:42.196Z,38.68
2023-05-22T15:57:08.712Z,39.20
2023-05-22T15:59:35.246Z,39.38
2023-05-22T16:02:01.778Z,39.46
2023-05-22T16:04:28.318Z,39.84
2023-05-22T16:06:54.875Z,39.83
2023-05-22T16:09:21.479Z,40.11
2023-05-22T16:11:48.042Z,40.50
2023-05-22T16:14:14.611Z,40.70
2023-05-22T16:16:41.190Z,40.65
2023-05-22T16:19:08.071Z,40.34
2023-05-22T16:21:34.679Z,40.70
2023-05-22T16:24:01.253Z,40.81
2023-05-22T16:26:27.790Z,40.39
2023-05-22T16:28:54.283Z,40.56
2023-05-22T16:31:20.850Z,40.86
2023-05-22T16:33:47.422Z,40.92
2023-05-22T16:36:13.939Z,40.98
2023-05-22T16:38:41.975Z,40.69
2023-05-22T16:41:08.538Z,41.03
2023-05-22T16:43:36.645Z,41.00
2023-05-22T16:46:03.194Z,40.86
2023-05-22T16:48:29.777Z,41.20
2023-05-22T16:50:56.297Z,41.37
2023-05-22T16:53:22.841Z,41.78
2023-05-22T16:55:49.368Z,41.83
2023-05-22T16:58:15.910Z,42.18
2023-05-22T17:00:42.919Z,42.15
2023-05-22T17:03:11.627Z,41.94
2023-05-22T17:05:38.769Z,42.10
2023-05-22T17:08:06.383Z,42.33
2023-05-22T17:10:32.928Z,42.42
2023-05-22T17:12:59.491Z,42.73
2023-05-22T17:15:26.120Z,42.61
2023-05-22T17:17:52.705Z,42.84
2023-05-22T17:20:22.961Z,42.97
2023-05-22T17:22:50.092Z,42.91
2023-05-22T17:25:17.012Z,43.15
2023-05-22T17:27:43.921Z,43.59
2023-05-22T17:30:11.326Z,43.92
2023-05-22T17:32:38.049Z,44.74
2023-05-22T17:35:06.585Z,44.96
2023-05-22T17:37:33.574Z,45.41
2023-05-22T17:40:00.259Z,46.08
2023-05-22T17:42:26.969Z,46.83
2023-05-22T17:44:53.507Z,46.78
2023-05-22T17:47:20.080Z,46.71
2023-05-22T17:49:46.780Z,46.66
2023-05-22T17:52:14.647Z,46.70
2023-05-22T17:54:41.279Z,46.80
2023-05-22T17:57:07.957Z,47.61
2023-05-22T17:59:34.465Z,47.65
2023-05-22T18:02:01.253Z,47.91
2023-05-22T18:04:27.990Z,48.00
2023-05-22T18:06:54.529Z,47.90
2023-05-22T18:09:21.149Z,47.77
2023-05-22T18:11:49.956Z,48.18
2023-05-22T18:14:16.528Z,48.58
2023-05-22T18:16:43.124Z,49.08
2023-05-22T18:19:09.808Z,48.77
2023-05-22T18:21:39.639Z,49.19
2023-05-22T18:24:06.355Z,48.88
2023-05-22T18:26:32.947Z,49.45
2023-05-22T18:28:59.579Z,49.91
2023-05-22T18:31:26.302Z,50.18
2023-05-22T18:33:52.933Z,50.25
2023-05-22T18:36:19.574Z,50.34
2023-05-22T18:38:46.200Z,50.44
2023-05-22T18:41:12.737Z,50.51
2023-05-22T18:43:39.346Z,50.67
2023-05-22T18:46:05.873Z,51.11
2023-05-22T18:48:33.105Z,51.28
2023-05-22T18:51:00.150Z,51.52
2023-05-22T18:53:27.273Z,51.42
2023-05-22T18:55:54.067Z,51.73
2023-05-22T18:58:21.027Z,51.68
2023-05-22T19:00:48.214Z,51.93
2023-05-22T19:03:15.057Z,51.89
2023-05-22T19:05:41.665Z,52.06
2023-05-22T19:08:08.365Z,52.53
2023-05-22T19:10:34.914Z,52.44
2023-05-22T19:13:01.514Z,52.59
2023-05-22T19:15:28.106Z,52.65
2023-05-22T19:17:54.769Z,52.67
2023-05-22T19:20:22.896Z,52.42
2023-05-22T19:22:50.930Z,52.79
2023-05-22T19:25:17.905Z,52.87
2023-05-22T19:27:44.815Z,53.10
2023-05-22T19:30:14.884Z,53.14
2023-05-22T19:32:41.645Z,53.64
2023-05-22T19:35:08.844Z,53.86
2023-05-22T19:37:35.427Z,53.91
2023-05-22T19:40:01.986Z,54.49
2023-05-22T19:42:28.483Z,54.60
2023-05-22T19:44:55.264Z,54.37
2023-05-22T19:47:21.809Z,53.42
2023-05-22T19:49:48.401Z,52.83
2023-05-22T19:52:14.914Z,52.85
2023-05-22T19:54:41.590Z,52.28
2023-05-22T19:57:08.156Z,52.20
2023-05-22T19:59:36.653Z,52.46
2023-05-22T20:02:03.855Z,52.34
2023-05-22T20:04:31.520Z,52.06
2023-05-22T20:07:02.130Z,51.83
2023-05-22T20:09:28.775Z,51.89
2023-05-22T20:11:55.319Z,51.82
2023-05-22T20:14:21.887Z,51.92
2023-05-22T20:16:48.499Z,52.41
2023-05-22T20:19:15.307Z,52.64
2023-05-22T20:21:41.907Z,52.85
2023-05-22T20:24:24.996Z,52.75
2023-05-22T20:26:52.354Z,53.14
2023-05-22T20:29:19.247Z,53.01
2023-05-22T20:31:46.500Z,52.81
2023-05-22T20:34:13.138Z,53.00
2023-05-22T20:36:42.324Z,52.94
2023-05-22T20:39:11.636Z,53.21
2023-05-22T20:41:38.492Z,53.47
2023-05-22T20:44:05.180Z,53.87
2023-05-22T20:46:32.121Z,53.89
2023-05-22T20:48:59.428Z,54.25
2023-05-22T20:51:32.336Z,55.05
2023-05-22T20:54:00.144Z,55.33
2023-05-22T20:56:27.189Z,55.56
2023-05-22T20:58:54.907Z,55.42
2023-05-22T21:01:24.999Z,55.55
2023-05-22T21:03:56.203Z,55.88
2023-05-22T21:06:23.287Z,55.88
2023-05-22T21:08:51.374Z,55.75
2023-05-22T21:11:19.804Z,56.04
2023-05-22T21:13:46.347Z,56.06
2023-05-22T21:16:12.949Z,56.16
2023-05-22T21:18:39.644Z,56.70
2023-05-22T21:21:06.181Z,56.81
2023-05-22T21:23:32.660Z,57.23
2023-05-22T21:25:59.251Z,57.04
2023-05-22T21:28:25.872Z,56.72
2023-05-22T21:30:52.394Z,56.47
2023-05-22T21:33:18.964Z,56.25
2023-05-22T21:35:45.586Z,56.43
2023-05-22T21:38:12.264Z,56.48
2023-05-22T21:40:40.670Z,56.48
2023-05-22T21:43:07.401Z,56.72
2023-05-22T21:45:34.212Z,56.96
2023-05-22T21:48:01.012Z,57.03
2023-05-22T21:50:27.590Z,57.30
2023-05-22T21:52:54.093Z,57.40
2023-05-22T21:55:21.236Z,57.37
2023-05-22T21:57:47.786Z,57.47
2023-05-22T22:00:15.311Z,57.41
2023-05-22T22:02:41.952Z,57.95
2023-05-22T22:05:08.939Z,58.04
2023-05-22T22:07:35.491Z,57.82
2023-05-22T22:10:02.038Z,57.83
2023-05-22T22:12:28.557Z,57.94
2023-05-22T22:14:57.653Z,58.09
2023-05-22T22:17:24.258Z,58.12
2023-05-22T22:19:53.357Z,58.20
2023-05-22T22:22:22.393Z,58.47
2023-05-22T22:24:48.902Z,58.49
2023-05-22T22:27:15.549Z,58.55
2023-05-22T22:29:43.508Z,58.37
2023-05-22T22:32:10.096Z,58.59
2023-05-22T22:34:37.568Z,58.84
2023-05-22T22:37:05.869Z,58.94
2023-05-22T22:39:32.440Z,58.89
2023-05-22T22:42:04.859Z,59.32
2023-05-22T22:44:32.294Z,59.49
2023-05-22T22:46:59.052Z,59.76
2023-05-22T22:49:25.631Z,59.73
2023-05-22T22:51:52.413Z,59.63
2023-05-22T22:54:18.974Z,59.54
2023-05-22T22:56:49.658Z,59.65
2023-05-22T22:59:17.020Z,59.83
2023-05-22T23:01:43.794Z,60.04
2023-05-22T23:04:10.561Z,60.49
2023-05-22T23:06:37.189Z,60.46
2023-05-22T23:09:03.964Z,60.46
2023-05-22T23:11:37.169Z,60.71
2023-05-22T23:14:08.808Z,60.86
2023-05-22T23:16:36.970Z,60.86
2023-05-22T23:19:08.699Z,61.20
2023-05-22T23:21:35.942Z,61.48
2023-05-22T23:24:04.751Z,61.31
2023-05-22T23:26:32.056Z,61.57
2023-05-22T23:28:59.844Z,61.48
2023-05-22T23:31:29.989Z,61.91
2023-05-22T23:33:57.573Z,62.16
2023-05-22T23:36:24.624Z,62.31
2023-05-22T23:38:51.502Z,62.45
2023-05-22T23:41:18.553Z,62.35
2023-05-22T23:43:46.113Z,62.55
2023-05-22T23:46:13.932Z,62.60
2023-05-22T23:48:42.019Z,62.69
2023-05-22T23:51:09.634Z,62.71
2023-05-22T23:53:36.883Z,62.70
2023-05-22T23:56:04.648Z,62.42
2023-05-22T23:58:32.036Z,63.05
